sensor_id;sensor_type;location;lat;lon;timestamp;pressure;altitude;pressure_sealevel;temperature;humidity
39275;BME280;24980;48.874;2.332;2023-05-09T00:01:53;101336.66;;;23.76;48.60
39275;BME280;24980;48.874;2.332;2023-05-09T00:04:24;101332.77;;;23.76;48.61
39275;BME280;24980;48.874;2.332;2023-05-09T00:06:53;101331.19;;;23.76;48.64
39275;BME280;24980;48.874;2.332;2023-05-09T00:09:22;101333.86;;;23.77;48.67
39275;BME280;24980;48.874;2.332;2023-05-09T00:11:52;101327.27;;;23.76;48.68
39275;BME280;24980;48.874;2.332;2023-05-09T00:14:22;101326.95;;;23.76;48.69
39275;BME280;24980;48.874;2.332;2023-05-09T00:16:52;101321.28;;;23.75;48.68
39275;BME280;24980;48.874;2.332;2023-05-09T00:19:22;101311.64;;;23.75;48.66
39275;BME280;24980;48.874;2.332;2023-05-09T00:21:53;101305.04;;;23.75;48.63
39275;BME280;24980;48.874;2.332;2023-05-09T00:24:28;101299.20;;;23.74;48.64
39275;BME280;24980;48.874;2.332;2023-05-09T00:26:55;101299.53;;;23.74;48.66
39275;BME280;24980;48.874;2.332;2023-05-09T00:29:29;101290.73;;;23.74;48.66
39275;BME280;24980;48.874;2.332;2023-05-09T00:31:54;101289.55;;;23.73;48.64
39275;BME280;24980;48.874;2.332;2023-05-09T00:34:24;101292.21;;;23.73;48.64
39275;BME280;24980;48.874;2.332;2023-05-09T00:37:02;101293.57;;;23.72;48.63
39275;BME280;24980;48.874;2.332;2023-05-09T00:39:28;101296.78;;;23.73;48.64
39275;BME280;24980;48.874;2.332;2023-05-09T00:41:56;101296.88;;;23.72;48.67
39275;BME280;24980;48.874;2.332;2023-05-09T00:44:28;101288.83;;;23.72;48.69
39275;BME280;24980;48.874;2.332;2023-05-09T00:47:04;101283.84;;;23.71;48.67
39275;BME280;24980;48.874;2.332;2023-05-09T00:49:27;101285.19;;;23.71;48.67
39275;BME280;24980;48.874;2.332;2023-05-09T00:51:57;101281.81;;;23.71;48.65
39275;BME280;24980;48.874;2.332;2023-05-09T00:54:31;101276.23;;;23.70;48.64
39275;BME280;24980;48.874;2.332;2023-05-09T00:56:59;101273.02;;;23.70;48.64
39275;BME280;24980;48.874;2.332;2023-05-09T00:59:30;101269.15;;;23.69;48.63
39275;BME280;24980;48.874;2.332;2023-05-09T01:02:01;101265.77;;;23.69;48.64
39275;BME280;24980;48.874;2.332;2023-05-09T01:04:31;101268.48;;;23.69;48.64
39275;BME280;24980;48.874;2.332;2023-05-09T01:07:23;101261.71;;;23.68;48.64
39275;BME280;24980;48.874;2.332;2023-05-09T01:10:03;101253.41;;;23.68;48.64
39275;BME280;24980;48.874;2.332;2023-05-09T01:12:29;101251.39;;;23.67;48.65
39275;BME280;24980;48.874;2.332;2023-05-09T01:14:43;101253.00;;;23.67;48.65
39275;BME280;24980;48.874;2.332;2023-05-09T01:22:10;101237.94;;;23.67;48.66
39275;BME280;24980;48.874;2.332;2023-05-09T01:29:46;101224.18;;;23.65;48.66
39275;BME280;24980;48.874;2.332;2023-05-09T01:32:18;101220.03;;;23.65;48.66
39275;BME280;24980;48.874;2.332;2023-05-09T01:34:42;101216.14;;;23.65;48.67
39275;BME280;24980;48.874;2.332;2023-05-09T01:37:14;101210.30;;;23.64;48.69
39275;BME280;24980;48.874;2.332;2023-05-09T01:39:44;101208.78;;;23.64;48.74
39275;BME280;24980;48.874;2.332;2023-05-09T01:42:10;101210.22;;;23.65;48.78
39275;BME280;24980;48.874;2.332;2023-05-09T01:44:44;101206.49;;;23.65;48.83
39275;BME280;24980;48.874;2.332;2023-05-09T01:47:10;101209.28;;;23.65;48.85
39275;BME280;24980;48.874;2.332;2023-05-09T01:49:42;101207.09;;;23.65;48.87
39275;BME280;24980;48.874;2.332;2023-05-09T01:52:18;101207.34;;;23.66;48.88
39275;BME280;24980;48.874;2.332;2023-05-09T01:54:43;101203.28;;;23.65;48.89
39275;BME280;24980;48.874;2.332;2023-05-09T01:57:17;101201.25;;;23.64;48.90
39275;BME280;24980;48.874;2.332;2023-05-09T01:59:45;101202.86;;;23.64;48.92
39275;BME280;24980;48.874;2.332;2023-05-09T02:02:14;101202.27;;;23.63;48.93
39275;BME280;24980;48.874;2.332;2023-05-09T02:04:44;101203.79;;;23.64;48.92
39275;BME280;24980;48.874;2.332;2023-05-09T02:07:14;101202.10;;;23.63;48.92
39275;BME280;24980;48.874;2.332;2023-05-09T02:09:45;101197.11;;;23.63;48.91
39275;BME280;24980;48.874;2.332;2023-05-09T02:12:17;101189.87;;;23.63;48.89
39275;BME280;24980;48.874;2.332;2023-05-09T02:14:45;101192.74;;;23.63;48.85
39275;BME280;24980;48.874;2.332;2023-05-09T02:17:15;101191.81;;;23.63;48.81
39275;BME280;24980;48.874;2.332;2023-05-09T02:19:53;101188.52;;;23.61;48.78
39275;BME280;24980;48.874;2.332;2023-05-09T02:22:17;101189.54;;;23.60;48.76
39275;BME280;24980;48.874;2.332;2023-05-09T02:24:47;101187.55;;;23.60;48.74
39275;BME280;24980;48.874;2.332;2023-05-09T02:27:18;101185.59;;;23.59;48.73
39275;BME280;24980;48.874;2.332;2023-05-09T02:29:51;101191.27;;;23.59;48.74
39275;BME280;24980;48.874;2.332;2023-05-09T02:32:25;101191.69;;;23.59;48.74
39275;BME280;24980;48.874;2.332;2023-05-09T02:34:51;101189.83;;;23.59;48.75
39275;BME280;24980;48.874;2.332;2023-05-09T02:37:20;101185.42;;;23.59;48.75
39275;BME280;24980;48.874;2.332;2023-05-09T02:39:49;101182.47;;;23.59;48.76
39275;BME280;24980;48.874;2.332;2023-05-09T02:42:23;101184.84;;;23.59;48.76
39275;BME280;24980;48.874;2.332;2023-05-09T02:44:49;101179.68;;;23.58;48.75
39275;BME280;24980;48.874;2.332;2023-05-09T02:47:25;101182.73;;;23.57;48.75
39275;BME280;24980;48.874;2.332;2023-05-09T02:49:54;101177.31;;;23.57;48.75
39275;BME280;24980;48.874;2.332;2023-05-09T02:52:24;101177.02;;;23.56;48.75
39275;BME280;24980;48.874;2.332;2023-05-09T02:54:52;101171.94;;;23.56;48.75
39275;BME280;24980;48.874;2.332;2023-05-09T02:57:27;101171.34;;;23.56;48.77
39275;BME280;24980;48.874;2.332;2023-05-09T02:59:54;101167.45;;;23.55;48.79
39275;BME280;24980;48.874;2.332;2023-05-09T03:02:25;101163.14;;;23.56;48.82
39275;BME280;24980;48.874;2.332;2023-05-09T03:04:56;101163.39;;;23.56;48.83
39275;BME280;24980;48.874;2.332;2023-05-09T03:07:23;101159.84;;;23.56;48.84
39275;BME280;24980;48.874;2.332;2023-05-09T03:09:59;101163.82;;;23.56;48.84
39275;BME280;24980;48.874;2.332;2023-05-09T03:12:29;101168.81;;;23.55;48.84
39275;BME280;24980;48.874;2.332;2023-05-09T03:14:54;101167.20;;;23.55;48.83
39275;BME280;24980;48.874;2.332;2023-05-09T03:17:26;101166.70;;;23.54;48.83
39275;BME280;24980;48.874;2.332;2023-05-09T03:19:56;101164.20;;;23.53;48.80
39275;BME280;24980;48.874;2.332;2023-05-09T03:22:27;101165.05;;;23.51;48.78
39275;BME280;24980;48.874;2.332;2023-05-09T03:24:57;101158.71;;;23.51;48.75
39275;BME280;24980;48.874;2.332;2023-05-09T03:27:28;101159.64;;;23.52;48.73
39275;BME280;24980;48.874;2.332;2023-05-09T03:29:59;101154.39;;;23.52;48.70
39275;BME280;24980;48.874;2.332;2023-05-09T03:32:28;101156.17;;;23.53;48.67
39275;BME280;24980;48.874;2.332;2023-05-09T03:35:02;101157.27;;;23.53;48.65
39275;BME280;24980;48.874;2.332;2023-05-09T03:37:36;101151.94;;;23.53;48.62
39275;BME280;24980;48.874;2.332;2023-05-09T03:40:02;101154.13;;;23.53;48.61
39275;BME280;24980;48.874;2.332;2023-05-09T03:42:30;101143.98;;;23.53;48.58
39275;BME280;24980;48.874;2.332;2023-05-09T03:45:00;101146.94;;;23.53;48.56
39275;BME280;24980;48.874;2.332;2023-05-09T03:47:34;101144.12;;;23.54;48.52
39275;BME280;24980;48.874;2.332;2023-05-09T03:50:01;101141.75;;;23.54;48.48
39275;BME280;24980;48.874;2.332;2023-05-09T03:52:38;101142.46;;;23.53;48.44
39275;BME280;24980;48.874;2.332;2023-05-09T03:55:03;101139.16;;;23.53;48.41
39275;BME280;24980;48.874;2.332;2023-05-09T03:57:35;101134.17;;;23.53;48.38
39275;BME280;24980;48.874;2.332;2023-05-09T04:00:09;101131.20;;;23.53;48.34
39275;BME280;24980;48.874;2.332;2023-05-09T04:02:38;101128.89;;;23.54;48.32
39275;BME280;24980;48.874;2.332;2023-05-09T04:05:04;101132.64;;;23.53;48.31
39275;BME280;24980;48.874;2.332;2023-05-09T04:07:35;101129.22;;;23.54;48.33
39275;BME280;24980;48.874;2.332;2023-05-09T04:10:10;101125.00;;;23.54;48.34
39275;BME280;24980;48.874;2.332;2023-05-09T04:12:36;101123.30;;;23.54;48.37
39275;BME280;24980;48.874;2.332;2023-05-09T04:15:07;101120.84;;;23.55;48.37
39275;BME280;24980;48.874;2.332;2023-05-09T04:17:37;101122.11;;;23.55;48.38
39275;BME280;24980;48.874;2.332;2023-05-09T04:20:09;101117.88;;;23.56;48.36
39275;BME280;24980;48.874;2.332;2023-05-09T04:22:38;101119.02;;;23.57;48.32
39275;BME280;24980;48.874;2.332;2023-05-09T04:25:12;101119.27;;;23.58;48.30
39275;BME280;24980;48.874;2.332;2023-05-09T04:27:39;101115.80;;;23.59;48.28
39275;BME280;24980;48.874;2.332;2023-05-09T04:30:12;101116.68;;;23.61;48.25
39275;BME280;24980;48.874;2.332;2023-05-09T04:32:45;101110.58;;;23.63;48.22
39275;BME280;24980;48.874;2.332;2023-05-09T04:35:18;101109.22;;;23.63;48.18
39275;BME280;24980;48.874;2.332;2023-05-09T04:37:43;101109.69;;;23.65;48.14
39275;BME280;24980;48.874;2.332;2023-05-09T04:40:12;101101.64;;;23.66;48.11
39275;BME280;24980;48.874;2.332;2023-05-09T04:42:42;101100.42;;;23.67;48.06
39275;BME280;24980;48.874;2.332;2023-05-09T04:45:13;101099.39;;;23.68;48.02
39275;BME280;24980;48.874;2.332;2023-05-09T04:47:43;101106.12;;;23.70;47.97
39275;BME280;24980;48.874;2.332;2023-05-09T04:50:13;101095.11;;;23.71;47.95
39275;BME280;24980;48.874;2.332;2023-05-09T04:52:43;101095.36;;;23.73;47.89
39275;BME280;24980;48.874;2.332;2023-05-09T04:55:13;101090.66;;;23.73;47.86
39275;BME280;24980;48.874;2.332;2023-05-09T04:57:43;101092.80;;;23.77;47.79
39275;BME280;24980;48.874;2.332;2023-05-09T05:00:13;101090.42;;;23.78;47.72
39275;BME280;24980;48.874;2.332;2023-05-09T05:02:44;101083.09;;;23.80;47.69
39275;BME280;24980;48.874;2.332;2023-05-09T05:05:14;101081.78;;;23.83;47.67
39275;BME280;24980;48.874;2.332;2023-05-09T05:07:44;101080.36;;;23.87;47.67
39275;BME280;24980;48.874;2.332;2023-05-09T05:10:15;101076.41;;;23.90;47.66
39275;BME280;24980;48.874;2.332;2023-05-09T05:12:47;101073.66;;;23.92;47.65
39275;BME280;24980;48.874;2.332;2023-05-09T05:15:15;101069.23;;;23.94;47.66
39275;BME280;24980;48.874;2.332;2023-05-09T05:17:47;101070.28;;;23.97;47.65
39275;BME280;24980;48.874;2.332;2023-05-09T05:20:17;101069.89;;;24.00;47.63
39275;BME280;24980;48.874;2.332;2023-05-09T05:22:50;101065.39;;;24.01;47.58
39275;BME280;24980;48.874;2.332;2023-05-09T05:25:18;101063.14;;;24.03;47.53
39275;BME280;24980;48.874;2.332;2023-05-09T05:27:48;101059.02;;;24.05;47.48
39275;BME280;24980;48.874;2.332;2023-05-09T05:30:20;101058.66;;;24.07;47.42
39275;BME280;24980;48.874;2.332;2023-05-09T05:32:50;101054.30;;;24.10;47.36
39275;BME280;24980;48.874;2.332;2023-05-09T05:35:24;101055.12;;;24.12;47.32
39275;BME280;24980;48.874;2.332;2023-05-09T05:37:53;101053.86;;;24.17;47.25
39275;BME280;24980;48.874;2.332;2023-05-09T05:40:21;101051.69;;;24.20;47.20
39275;BME280;24980;48.874;2.332;2023-05-09T05:42:55;101053.65;;;24.23;47.13
39275;BME280;24980;48.874;2.332;2023-05-09T05:45:24;101052.83;;;24.26;47.10
39275;BME280;24980;48.874;2.332;2023-05-09T05:47:51;101051.16;;;24.29;47.07
39275;BME280;24980;48.874;2.332;2023-05-09T05:50:29;101048.14;;;24.31;47.05
39275;BME280;24980;48.874;2.332;2023-05-09T05:52:52;101047.69;;;24.34;47.03
39275;BME280;24980;48.874;2.332;2023-05-09T05:55:25;101042.30;;;24.36;46.98
39275;BME280;24980;48.874;2.332;2023-05-09T05:57:53;101040.39;;;24.37;46.94
39275;BME280;24980;48.874;2.332;2023-05-09T06:00:23;101036.21;;;24.40;46.89
39275;BME280;24980;48.874;2.332;2023-05-09T06:02:54;101028.80;;;24.41;46.85
39275;BME280;24980;48.874;2.332;2023-05-09T06:05:26;101022.80;;;24.44;46.79
39275;BME280;24980;48.874;2.332;2023-05-09T06:08:00;101022.66;;;24.47;46.75
39275;BME280;24980;48.874;2.332;2023-05-09T06:10:27;101026.39;;;24.50;46.72
39275;BME280;24980;48.874;2.332;2023-05-09T06:12:54;101026.83;;;24.54;46.68
39275;BME280;24980;48.874;2.332;2023-05-09T06:15:33;101025.03;;;24.56;46.64
39275;BME280;24980;48.874;2.332;2023-05-09T06:17:56;101020.22;;;24.59;46.59
39275;BME280;24980;48.874;2.332;2023-05-09T06:20:28;101017.80;;;24.60;46.53
39275;BME280;24980;48.874;2.332;2023-05-09T06:22:59;101014.84;;;24.63;46.48
39275;BME280;24980;48.874;2.332;2023-05-09T06:25:30;101016.19;;;24.64;46.44
39275;BME280;24980;48.874;2.332;2023-05-09T06:28:00;101010.67;;;24.65;46.39
39275;BME280;24980;48.874;2.332;2023-05-09T06:30:30;101011.69;;;24.65;46.37
39275;BME280;24980;48.874;2.332;2023-05-09T06:32:59;101009.67;;;24.63;46.34
39275;BME280;24980;48.874;2.332;2023-05-09T06:35:37;101006.36;;;24.64;46.36
39275;BME280;24980;48.874;2.332;2023-05-09T06:38:01;100996.69;;;24.65;46.38
39275;BME280;24980;48.874;2.332;2023-05-09T06:40:30;100992.19;;;24.66;46.39
39275;BME280;24980;48.874;2.332;2023-05-09T06:43:08;100991.20;;;24.68;46.40
39275;BME280;24980;48.874;2.332;2023-05-09T06:45:31;100988.23;;;24.67;46.40
39275;BME280;24980;48.874;2.332;2023-05-09T06:48:02;100988.05;;;24.69;46.38
39275;BME280;24980;48.874;2.332;2023-05-09T06:50:35;100987.91;;;24.71;46.35
39275;BME280;24980;48.874;2.332;2023-05-09T06:53:03;100990.36;;;24.71;46.30
39275;BME280;24980;48.874;2.332;2023-05-09T06:55:33;100982.39;;;24.71;46.23
39275;BME280;24980;48.874;2.332;2023-05-09T06:58:05;100976.88;;;24.72;46.16
39275;BME280;24980;48.874;2.332;2023-05-09T07:00:34;100975.86;;;24.72;46.11
39275;BME280;24980;48.874;2.332;2023-05-09T07:03:06;100973.23;;;24.72;46.04
39275;BME280;24980;48.874;2.332;2023-05-09T07:05:35;100965.86;;;24.71;46.00
39275;BME280;24980;48.874;2.332;2023-05-09T07:08:05;100962.12;;;24.72;45.95
39275;BME280;24980;48.874;2.332;2023-05-09T07:10:38;100957.72;;;24.72;45.92
39275;BME280;24980;48.874;2.332;2023-05-09T07:13:05;100951.37;;;24.71;45.89
39275;BME280;24980;48.874;2.332;2023-05-09T07:15:36;100953.31;;;24.72;45.86
39275;BME280;24980;48.874;2.332;2023-05-09T07:18:07;100948.52;;;24.73;45.81
39275;BME280;24980;48.874;2.332;2023-05-09T07:20:36;100941.22;;;24.74;45.78
39275;BME280;24980;48.874;2.332;2023-05-09T07:23:07;100936.12;;;24.74;45.76
39275;BME280;24980;48.874;2.332;2023-05-09T07:25:38;100934.16;;;24.75;45.74
39275;BME280;24980;48.874;2.332;2023-05-09T07:28:08;100930.64;;;24.76;45.72
39275;BME280;24980;48.874;2.332;2023-05-09T07:30:39;100926.66;;;24.77;45.72
39275;BME280;24980;48.874;2.332;2023-05-09T07:33:10;100924.52;;;24.77;45.69
39275;BME280;24980;48.874;2.332;2023-05-09T07:35:43;100922.75;;;24.77;45.68
39275;BME280;24980;48.874;2.332;2023-05-09T07:38:10;100922.75;;;24.77;45.67
39275;BME280;24980;48.874;2.332;2023-05-09T07:40:41;100915.62;;;24.77;45.66
39275;BME280;24980;48.874;2.332;2023-05-09T07:43:14;100915.19;;;24.78;45.64
39275;BME280;24980;48.874;2.332;2023-05-09T07:45:43;100913.57;;;24.78;45.63
39275;BME280;24980;48.874;2.332;2023-05-09T07:48:13;100907.16;;;24.80;45.63
39275;BME280;24980;48.874;2.332;2023-05-09T07:50:44;100905.36;;;24.81;45.62
39275;BME280;24980;48.874;2.332;2023-05-09T07:53:15;100903.44;;;24.82;45.60
39275;BME280;24980;48.874;2.332;2023-05-09T07:55:45;100905.23;;;24.84;45.60
39275;BME280;24980;48.874;2.332;2023-05-09T07:58:16;100906.16;;;24.84;45.61
39275;BME280;24980;48.874;2.332;2023-05-09T08:00:46;100906.03;;;24.85;45.60
39275;BME280;24980;48.874;2.332;2023-05-09T08:03:17;100905.94;;;24.86;45.59
39275;BME280;24980;48.874;2.332;2023-05-09T08:05:52;100906.78;;;24.86;45.59
39275;BME280;24980;48.874;2.332;2023-05-09T08:08:18;100903.62;;;24.87;45.58
39275;BME280;24980;48.874;2.332;2023-05-09T08:10:48;100898.21;;;24.87;45.59
39275;BME280;24980;48.874;2.332;2023-05-09T08:13:19;100890.58;;;24.87;45.58
39275;BME280;24980;48.874;2.332;2023-05-09T08:15:50;100891.25;;;24.87;45.58
39275;BME280;24980;48.874;2.332;2023-05-09T08:18:21;100888.55;;;24.87;45.58
39275;BME280;24980;48.874;2.332;2023-05-09T08:20:51;100887.11;;;24.86;45.58
39275;BME280;24980;48.874;2.332;2023-05-09T08:23:21;100889.73;;;24.87;45.58
39275;BME280;24980;48.874;2.332;2023-05-09T08:25:54;100885.91;;;24.87;45.57
39275;BME280;24980;48.874;2.332;2023-05-09T08:28:21;100882.34;;;24.87;45.58
39275;BME280;24980;48.874;2.332;2023-05-09T08:30:52;100876.07;;;24.87;45.58
39275;BME280;24980;48.874;2.332;2023-05-09T08:33:23;100872.58;;;24.88;45.58
39275;BME280;24980;48.874;2.332;2023-05-09T08:35:54;100870.59;;;24.89;45.58
39275;BME280;24980;48.874;2.332;2023-05-09T08:38:25;100864.73;;;24.89;45.58
39275;BME280;24980;48.874;2.332;2023-05-09T08:41:01;100863.11;;;24.90;45.59
39275;BME280;24980;48.874;2.332;2023-05-09T08:43:27;100855.74;;;24.90;45.60
39275;BME280;24980;48.874;2.332;2023-05-09T08:46:04;100852.09;;;24.89;45.63
39275;BME280;24980;48.874;2.332;2023-05-09T08:48:28;100855.41;;;24.90;45.63
39275;BME280;24980;48.874;2.332;2023-05-09T08:50:59;100845.75;;;24.89;45.65
39275;BME280;24980;48.874;2.332;2023-05-09T08:53:29;100845.92;;;24.89;45.66
39275;BME280;24980;48.874;2.332;2023-05-09T08:56:02;100846.90;;;24.88;45.66
39275;BME280;24980;48.874;2.332;2023-05-09T08:58:30;100838.67;;;24.88;45.68
39275;BME280;24980;48.874;2.332;2023-05-09T09:01:00;100836.56;;;24.87;45.69
39275;BME280;24980;48.874;2.332;2023-05-09T09:03:30;100839.87;;;24.88;45.70
39275;BME280;24980;48.874;2.332;2023-05-09T09:06:01;100836.64;;;24.88;45.70
39275;BME280;24980;48.874;2.332;2023-05-09T09:08:33;100831.89;;;24.88;45.70
39275;BME280;24980;48.874;2.332;2023-05-09T09:11:02;100829.69;;;24.88;45.72
39275;BME280;24980;48.874;2.332;2023-05-09T09:13:37;100830.75;;;24.88;45.73
39275;BME280;24980;48.874;2.332;2023-05-09T09:16:06;100833.08;;;24.88;45.74
39275;BME280;24980;48.874;2.332;2023-05-09T09:18:34;100828.77;;;24.87;45.75
39275;BME280;24980;48.874;2.332;2023-05-09T09:21:06;100819.78;;;24.87;45.76
39275;BME280;24980;48.874;2.332;2023-05-09T09:23:37;100817.42;;;24.86;45.76
39275;BME280;24980;48.874;2.332;2023-05-09T09:26:03;100822.34;;;24.86;45.77
39275;BME280;24980;48.874;2.332;2023-05-09T09:28:34;100822.17;;;24.86;45.77
39275;BME280;24980;48.874;2.332;2023-05-09T09:31:25;100825.83;;;24.86;45.78
39275;BME280;24980;48.874;2.332;2023-05-09T09:33:35;100823.11;;;24.86;45.79
39275;BME280;24980;48.874;2.332;2023-05-09T09:36:05;100826.47;;;24.88;45.79
39275;BME280;24980;48.874;2.332;2023-05-09T09:38:39;100826.23;;;24.90;45.81
39275;BME280;24980;48.874;2.332;2023-05-09T09:41:09;100821.47;;;24.91;45.83
39275;BME280;24980;48.874;2.332;2023-05-09T09:43:36;100828.12;;;24.92;45.87
39275;BME280;24980;48.874;2.332;2023-05-09T09:46:06;100823.85;;;24.94;45.88
39275;BME280;24980;48.874;2.332;2023-05-09T09:48:39;100828.53;;;24.96;45.92
39275;BME280;24980;48.874;2.332;2023-05-09T09:51:08;100823.77;;;24.97;45.94
39275;BME280;24980;48.874;2.332;2023-05-09T09:53:41;100823.09;;;24.97;45.97
39275;BME280;24980;48.874;2.332;2023-05-09T09:56:10;100817.34;;;24.96;46.01
39275;BME280;24980;48.874;2.332;2023-05-09T09:58:39;100818.70;;;24.96;46.02
39275;BME280;24980;48.874;2.332;2023-05-09T10:01:11;100815.56;;;24.95;46.04
39275;BME280;24980;48.874;2.332;2023-05-09T10:03:41;100811.97;;;24.95;46.04
39275;BME280;24980;48.874;2.332;2023-05-09T10:06:10;100808.84;;;24.94;46.05
39275;BME280;24980;48.874;2.332;2023-05-09T10:08:41;100811.64;;;24.94;46.06
39275;BME280;24980;48.874;2.332;2023-05-09T10:11:11;100804.80;;;24.92;46.08
39275;BME280;24980;48.874;2.332;2023-05-09T10:13:44;100801.91;;;24.92;46.09
39275;BME280;24980;48.874;2.332;2023-05-09T10:16:12;100797.94;;;24.92;46.10
39275;BME280;24980;48.874;2.332;2023-05-09T10:18:43;100797.42;;;24.92;46.11
39275;BME280;24980;48.874;2.332;2023-05-09T10:21:14;100793.78;;;24.92;46.14
39275;BME280;24980;48.874;2.332;2023-05-09T10:23:45;100792.20;;;24.92;46.15
39275;BME280;24980;48.874;2.332;2023-05-09T10:26:18;100790.95;;;24.91;46.17
39275;BME280;24980;48.874;2.332;2023-05-09T10:28:47;100779.94;;;24.90;46.18
39275;BME280;24980;48.874;2.332;2023-05-09T10:31:25;100776.55;;;24.90;46.19
39275;BME280;24980;48.874;2.332;2023-05-09T10:33:48;100779.34;;;24.90;46.20
39275;BME280;24980;48.874;2.332;2023-05-09T10:36:19;100773.17;;;24.89;46.22
39275;BME280;24980;48.874;2.332;2023-05-09T10:38:50;100771.19;;;24.88;46.25
39275;BME280;24980;48.874;2.332;2023-05-09T10:41:19;100776.44;;;24.88;46.26
39275;BME280;24980;48.874;2.332;2023-05-09T10:43:49;100770.72;;;24.89;46.27
39275;BME280;24980;48.874;2.332;2023-05-09T10:46:19;100770.22;;;24.88;46.28
39275;BME280;24980;48.874;2.332;2023-05-09T10:48:50;100762.25;;;24.88;46.30
39275;BME280;24980;48.874;2.332;2023-05-09T10:51:25;100759.83;;;24.88;46.30
39275;BME280;24980;48.874;2.332;2023-05-09T10:53:52;100759.31;;;24.88;46.32
39275;BME280;24980;48.874;2.332;2023-05-09T10:56:23;100754.91;;;24.88;46.35
39275;BME280;24980;48.874;2.332;2023-05-09T10:58:54;100752.11;;;24.88;46.36
39275;BME280;24980;48.874;2.332;2023-05-09T11:01:36;100751.45;;;24.87;46.37
39275;BME280;24980;48.874;2.332;2023-05-09T11:03:55;100749.50;;;24.87;46.39
39275;BME280;24980;48.874;2.332;2023-05-09T11:06:48;100745.76;;;24.88;46.39
39275;BME280;24980;48.874;2.332;2023-05-09T11:08:54;100740.27;;;24.87;46.40
39275;BME280;24980;48.874;2.332;2023-05-09T11:11:25;100742.80;;;24.87;46.41
39275;BME280;24980;48.874;2.332;2023-05-09T11:13:57;100740.94;;;24.87;46.44
39275;BME280;24980;48.874;2.332;2023-05-09T11:16:25;100735.02;;;24.86;46.45
39275;BME280;24980;48.874;2.332;2023-05-09T11:18:56;100733.67;;;24.86;46.46
39275;BME280;24980;48.874;2.332;2023-05-09T11:21:27;100737.14;;;24.86;46.49
39275;BME280;24980;48.874;2.332;2023-05-09T11:23:57;100732.98;;;24.86;46.49
39275;BME280;24980;48.874;2.332;2023-05-09T11:26:31;100724.77;;;24.86;46.51
39275;BME280;24980;48.874;2.332;2023-05-09T11:28:59;100728.57;;;24.86;46.51
39275;BME280;24980;48.874;2.332;2023-05-09T11:31:30;100730.09;;;24.87;46.53
39275;BME280;24980;48.874;2.332;2023-05-09T11:34:01;100729.76;;;24.86;46.54
39275;BME280;24980;48.874;2.332;2023-05-09T11:36:31;100729.94;;;24.86;46.56
39275;BME280;24980;48.874;2.332;2023-05-09T11:39:03;100728.93;;;24.85;46.56
39275;BME280;24980;48.874;2.332;2023-05-09T11:41:39;100724.14;;;24.85;46.57
39275;BME280;24980;48.874;2.332;2023-05-09T11:44:01;100723.05;;;24.84;46.57
39275;BME280;24980;48.874;2.332;2023-05-09T11:46:32;100719.58;;;24.84;46.58
39275;BME280;24980;48.874;2.332;2023-05-09T11:49:05;100720.69;;;24.83;46.60
39275;BME280;24980;48.874;2.332;2023-05-09T11:51:35;100720.02;;;24.83;46.61
39275;BME280;24980;48.874;2.332;2023-05-09T11:54:03;100719.43;;;24.83;46.62
39275;BME280;24980;48.874;2.332;2023-05-09T11:56:40;100716.89;;;24.83;46.63
39275;BME280;24980;48.874;2.332;2023-05-09T11:59:06;100715.45;;;24.82;46.65
39275;BME280;24980;48.874;2.332;2023-05-09T12:01:35;100717.67;;;24.81;46.66
39275;BME280;24980;48.874;2.332;2023-05-09T12:04:06;100714.95;;;24.81;46.69
39275;BME280;24980;48.874;2.332;2023-05-09T12:06:37;100713.11;;;24.80;46.71
39275;BME280;24980;48.874;2.332;2023-05-09T12:09:08;100716.82;;;24.79;46.72
39275;BME280;24980;48.874;2.332;2023-05-09T12:11:48;100717.92;;;24.78;46.73
39275;BME280;24980;48.874;2.332;2023-05-09T12:14:08;100715.21;;;24.78;46.75
39275;BME280;24980;48.874;2.332;2023-05-09T12:16:46;100716.14;;;24.79;46.75
39275;BME280;24980;48.874;2.332;2023-05-09T12:19:11;100715.39;;;24.78;46.76
39275;BME280;24980;48.874;2.332;2023-05-09T12:21:42;100716.92;;;24.78;46.76
39275;BME280;24980;48.874;2.332;2023-05-09T12:24:11;100716.25;;;24.77;46.79
39275;BME280;24980;48.874;2.332;2023-05-09T12:26:40;100718.98;;;24.76;46.81
39275;BME280;24980;48.874;2.332;2023-05-09T12:29:12;100711.94;;;24.77;46.83
39275;BME280;24980;48.874;2.332;2023-05-09T12:31:41;100716.44;;;24.76;46.85
39275;BME280;24980;48.874;2.332;2023-05-09T12:34:12;100711.91;;;24.75;46.86
39275;BME280;24980;48.874;2.332;2023-05-09T12:36:45;100712.80;;;24.76;46.86
39275;BME280;24980;48.874;2.332;2023-05-09T12:39:12;100713.98;;;24.76;46.86
39275;BME280;24980;48.874;2.332;2023-05-09T12:41:50;100716.33;;;24.75;46.87
39275;BME280;24980;48.874;2.332;2023-05-09T12:44:25;100719.30;;;24.74;46.90
39275;BME280;24980;48.874;2.332;2023-05-09T12:47:01;100719.56;;;24.74;46.92
39275;BME280;24980;48.874;2.332;2023-05-09T12:49:22;100714.08;;;24.73;46.93
39275;BME280;24980;48.874;2.332;2023-05-09T12:51:49;100715.26;;;24.73;46.93
39275;BME280;24980;48.874;2.332;2023-05-09T12:54:21;100716.41;;;24.72;46.94
39275;BME280;24980;48.874;2.332;2023-05-09T12:56:46;100716.59;;;24.71;46.95
39275;BME280;24980;48.874;2.332;2023-05-09T12:59:19;100711.08;;;24.71;46.95
39275;BME280;24980;48.874;2.332;2023-05-09T13:01:59;100716.42;;;24.71;46.96
39275;BME280;24980;48.874;2.332;2023-05-09T13:04:20;100722.02;;;24.70;46.98
39275;BME280;24980;48.874;2.332;2023-05-09T13:06:48;100716.73;;;24.69;46.99
39275;BME280;24980;48.874;2.332;2023-05-09T13:09:18;100715.38;;;24.69;47.00
39275;BME280;24980;48.874;2.332;2023-05-09T13:11:49;100716.17;;;24.67;47.02
39275;BME280;24980;48.874;2.332;2023-05-09T13:14:21;100709.83;;;24.67;47.04
39275;BME280;24980;48.874;2.332;2023-05-09T13:16:49;100704.81;;;24.68;47.04